Grayson, KY

10:57 AM EDT on August 28, 2014 (GMT -0400)
Tri-State / Ferguson | Change Station
CLOSE
Current Station
Airport
Location: Huntington,
Elevation: 837 ft
Nearby Weather Stations

Elev 837 ft 38.37 °N, 82.56 °W | Updated 6 minutes ago

Overcast
Overcast
72 °F
Feels Like 72 °F
N
6
Wind Variable Wind from Variable

Today
High -- | Low -- °F
--% Chance of Precip.
Yesterday
High -- | Low -- °F
Precip. -- in
6:57 AM 8:07 PM
Waxing Crescent, 8% visible
Pressure 30.09 in
Visibility 8.0 miles
Clouds Overcast 800 ft
Dew Point 66 °F
Humidity 81%
Rainfall 0.04 in
Snow Depth Not available.
UV 2 out of 12
Pollen 9.90 out of 12
Air Quality Not available.
Flu Activity Not available.
METAR KHTS 281451Z VRB05KT 8SM OVC008 22/19 A3010 RMK AO2 SLP187 T02220189 51004

More Conditions Fewer Conditions

Pressure 30.09 in
Visibility 8.0 miles
Clouds Overcast 800 ft
Dew Point 66 °F
Humidity 81%
Rainfall 0.04 in
Snow Depth Not available.
UV 2 out of 12
Pollen 9.90 out of 12
Air Quality Not available.
Flu Activity Not available.
METAR KHTS 281451Z VRB05KT 8SM OVC008 22/19 A3010 RMK AO2 SLP187 T02220189 51004

More Conditions Fewer Conditions

10-Day Weather Forecast

Almanac

Astronomy

Aug. 28, 2014 Rise Set
Actual Time 6:57 AM EDT 8:07 PM EDT
Civil Twilight 6:30 AM EDT 8:34 PM EDT
Nautical Twilight 5:57 AM EDT 9:07 PM EDT
Astronomical Twilight 5:23 AM EDT 9:41 PM EDT
Moon 9:46 AM EDT 9:34 PM EDT
Length of Visible Light 14h 04m
Length of Day
13h 09m
Tomorrow will be 2m 20s shorter.
Waxing Crescent, 8% of the Moon is Illuminated
Today
Waxing Crescent
Sep 2
First Quarter
Sep 8
Full
Sep 15
Last Quarter
Sep 24
New

Today's Extremes

State Highs State Lows

Community

WunderPhotos

Upload Photos

1,747,970 photos uploaded!

Nearby

Snow Depth

Station Depth Elevation
No new snow has been reported.

Earthquake Activity

City Distance Mag. Time & Date
No recent earthquake activity has been reported nearby.
Minimum magnitude displayed is 2.5.

Coastal Water Temperatures

Place Temperature
No Stations Reporting

Nearby Weather Stations